createdAt,value
2022-12-25T00:02:10.634Z,5.25
2022-12-25T00:04:40.659Z,5.21
2022-12-25T00:07:08.895Z,5.05
2022-12-25T00:09:35.818Z,5.20
2022-12-25T00:12:04.970Z,5.23
2022-12-25T00:14:36.608Z,6.11
2022-12-25T00:17:07.976Z,5.90
2022-12-25T00:19:34.488Z,6.41
2022-12-25T00:22:07.928Z,6.47
2022-12-25T00:24:36.147Z,6.38
2022-12-25T00:27:03.136Z,6.03
2022-12-25T00:29:30.932Z,5.32
2022-12-25T00:32:04.785Z,4.94
2022-12-25T00:34:31.917Z,6.56
2022-12-25T00:37:01.616Z,6.25
2022-12-25T00:39:30.584Z,5.96
2022-12-25T00:42:02.237Z,6.05
2022-12-25T00:44:31.972Z,5.95
2022-12-25T00:47:01.633Z,5.12
2022-12-25T00:49:29.999Z,5.27
2022-12-25T00:52:00.530Z,5.23
2022-12-25T00:54:27.519Z,6.48
2022-12-25T00:56:54.425Z,5.33
2022-12-25T00:59:33.984Z,5.52
2022-12-25T01:02:01.662Z,5.61
2022-12-25T01:04:30.943Z,6.57
2022-12-25T01:06:59.933Z,6.60
2022-12-25T01:09:26.776Z,6.61
2022-12-25T01:11:53.568Z,6.17
2022-12-25T01:14:20.507Z,5.57
2022-12-25T01:16:48.892Z,5.62
2022-12-25T01:19:19.129Z,6.41
2022-12-25T01:21:46.519Z,5.38
2022-12-25T01:24:18.432Z,6.48
2022-12-25T01:26:56.354Z,6.31
2022-12-25T01:29:32.692Z,5.70
2022-12-25T01:32:06.592Z,5.53
2022-12-25T01:34:38.916Z,6.87
2022-12-25T01:37:05.811Z,5.60
2022-12-25T01:39:34.073Z,6.92
2022-12-25T01:42:06.842Z,6.54
2022-12-25T01:45:21.247Z,6.05
2022-12-25T01:47:50.813Z,6.19
2022-12-25T01:50:20.653Z,5.76
2022-12-25T01:52:50.374Z,5.98
2022-12-25T01:55:25.446Z,6.79
2022-12-25T01:57:56.090Z,5.83
2022-12-25T02:00:25.523Z,5.70
2022-12-25T02:02:55.620Z,7.07
2022-12-25T02:05:27.212Z,7.25
2022-12-25T02:08:07.672Z,6.13
2022-12-25T02:10:38.189Z,6.42
2022-12-25T02:13:06.370Z,6.01
2022-12-25T02:15:46.506Z,7.36
2022-12-25T02:18:30.431Z,6.87
2022-12-25T02:21:35.997Z,6.19
2022-12-25T02:24:33.693Z,6.38
2022-12-25T02:27:16.923Z,7.50
2022-12-25T02:29:56.627Z,7.58
2022-12-25T02:32:43.551Z,6.37
2022-12-25T02:38:41.403Z,7.37
2022-12-25T02:47:36.003Z,7.04
2022-12-25T02:53:03.574Z,7.21
2022-12-25T02:55:49.595Z,6.79
2022-12-25T02:58:28.674Z,6.59
2022-12-25T03:01:04.150Z,7.86
2022-12-25T03:03:44.205Z,7.52
2022-12-25T03:06:20.528Z,7.72
2022-12-25T03:08:55.533Z,7.65
2022-12-25T03:11:33.903Z,7.47
2022-12-25T03:14:15.329Z,7.98
2022-12-25T03:16:51.167Z,7.64
2022-12-25T03:19:28.686Z,6.79
2022-12-25T03:21:56.400Z,6.67
2022-12-25T03:24:27.512Z,8.01
2022-12-25T03:26:56.729Z,6.67
2022-12-25T03:29:32.685Z,6.81
2022-12-25T03:32:24.344Z,7.64
2022-12-25T03:37:56.229Z,7.62
2022-12-25T03:40:39.837Z,7.61
2022-12-25T03:43:22.389Z,7.20
2022-12-25T03:46:03.922Z,6.56
2022-12-25T03:48:49.208Z,7.88
2022-12-25T03:51:30.097Z,6.67
2022-12-25T03:54:13.435Z,6.71
2022-12-25T03:56:50.989Z,6.72
2022-12-25T03:59:31.505Z,6.75
2022-12-25T04:01:58.740Z,6.85
2022-12-25T04:07:29.669Z,7.10
2022-12-25T04:10:02.526Z,8.23
2022-12-25T04:12:44.232Z,7.40
2022-12-25T04:15:13.570Z,8.26
2022-12-25T04:17:47.980Z,7.09
2022-12-25T04:20:16.913Z,8.04
2022-12-25T04:23:02.476Z,8.37
2022-12-25T04:25:39.401Z,8.40
2022-12-25T04:28:09.136Z,8.13
2022-12-25T04:30:38.908Z,8.12
2022-12-25T04:33:11.661Z,8.35
2022-12-25T04:35:55.135Z,8.27
2022-12-25T04:38:23.528Z,8.15
2022-12-25T04:40:58.496Z,8.19
2022-12-25T04:43:30.392Z,7.54
2022-12-25T04:46:02.257Z,7.31
2022-12-25T04:48:37.663Z,8.58
2022-12-25T04:51:24.978Z,8.59
2022-12-25T04:54:14.271Z,8.17
2022-12-25T04:56:45.522Z,7.50
2022-12-25T04:59:28.024Z,7.45
2022-12-25T05:02:13.773Z,7.55
2022-12-25T05:04:59.577Z,8.26
2022-12-25T05:07:42.286Z,8.59
2022-12-25T05:10:41.420Z,7.41
2022-12-25T05:13:20.807Z,7.76
2022-12-25T05:16:10.288Z,7.69
2022-12-25T05:18:40.133Z,8.57
2022-12-25T05:21:23.350Z,7.41
2022-12-25T05:24:06.968Z,8.53
2022-12-25T05:27:07.532Z,7.39
2022-12-25T05:29:48.376Z,7.33
2022-12-25T05:32:56.341Z,8.57
2022-12-25T05:35:31.861Z,7.46
2022-12-25T05:38:17.873Z,8.51
2022-12-25T05:40:58.174Z,8.33
2022-12-25T05:44:07.940Z,7.86
2022-12-25T05:46:46.093Z,7.33
2022-12-25T05:49:19.949Z,7.79
2022-12-25T05:54:49.256Z,8.71
2022-12-25T05:57:43.050Z,8.72
2022-12-25T06:00:21.815Z,7.70
2022-12-25T06:02:54.441Z,7.99
2022-12-25T06:05:23.282Z,8.51
2022-12-25T06:07:55.140Z,8.45
2022-12-25T06:10:24.203Z,8.88
2022-12-25T06:13:02.399Z,8.89
2022-12-25T06:15:40.093Z,8.86
2022-12-25T06:23:58.536Z,7.52
2022-12-25T06:26:44.393Z,8.61
2022-12-25T06:29:21.079Z,7.70
2022-12-25T06:32:07.401Z,7.64
2022-12-25T06:34:37.292Z,8.67
2022-12-25T06:40:07.307Z,7.87
2022-12-25T06:45:19.052Z,7.78
2022-12-25T06:47:51.372Z,7.69
2022-12-25T06:53:17.798Z,8.50
2022-12-25T06:55:52.769Z,8.79
2022-12-25T06:58:28.447Z,7.72
2022-12-25T07:03:51.712Z,8.37
2022-12-25T07:06:18.755Z,7.87
2022-12-25T07:08:51.293Z,8.53
2022-12-25T07:11:30.973Z,8.52
2022-12-25T07:14:05.808Z,8.74
2022-12-25T07:16:32.876Z,7.93
2022-12-25T07:19:03.892Z,8.85
2022-12-25T07:21:36.581Z,8.99
2022-12-25T07:24:08.873Z,8.62
2022-12-25T07:26:44.800Z,9.03
2022-12-25T07:29:16.561Z,7.82
2022-12-25T07:31:49.669Z,8.09
2022-12-25T07:34:26.078Z,9.05
2022-12-25T07:37:01.140Z,8.74
2022-12-25T07:39:39.965Z,8.37
2022-12-25T07:42:25.024Z,8.07
2022-12-25T07:45:07.757Z,9.04
2022-12-25T07:48:02.699Z,9.09
2022-12-25T07:50:40.181Z,8.03
2022-12-25T07:53:18.943Z,8.78
2022-12-25T07:56:02.409Z,7.85
2022-12-25T07:58:42.103Z,9.11
2022-12-25T08:01:26.707Z,7.90
2022-12-25T08:04:10.359Z,7.93
2022-12-25T08:06:43.724Z,9.14
2022-12-25T08:09:19.383Z,7.90
2022-12-25T08:11:53.838Z,7.95
2022-12-25T08:14:27.948Z,7.79
2022-12-25T08:17:07.414Z,9.17
2022-12-25T08:19:39.194Z,9.18
2022-12-25T08:22:15.403Z,9.17
2022-12-25T08:24:55.138Z,9.18
2022-12-25T08:27:25.077Z,8.37
2022-12-25T08:29:57.825Z,7.75
2022-12-25T08:32:39.807Z,8.63
2022-12-25T08:35:11.716Z,9.12
2022-12-25T08:37:42.739Z,8.25
2022-12-25T08:40:13.138Z,7.86
2022-12-25T08:42:47.759Z,8.84
2022-12-25T08:45:34.749Z,7.86
2022-12-25T08:48:04.971Z,9.18
2022-12-25T08:50:37.017Z,7.99
2022-12-25T08:53:10.912Z,8.14
2022-12-25T08:55:47.830Z,8.82
2022-12-25T08:58:19.879Z,8.37
2022-12-25T09:00:49.917Z,8.89
2022-12-25T09:03:27.256Z,8.49
2022-12-25T09:09:16.507Z,8.90
2022-12-25T09:11:50.973Z,7.68
2022-12-25T09:14:19.480Z,8.95
2022-12-25T09:16:49.208Z,7.87
2022-12-25T09:19:31.516Z,8.91
2022-12-25T09:21:58.281Z,8.60
2022-12-25T09:24:26.647Z,8.36
2022-12-25T09:26:55.431Z,9.21
2022-12-25T09:33:26.514Z,7.94
2022-12-25T09:40:58.193Z,9.21
2022-12-25T10:10:44.244Z,8.23
2022-12-25T10:19:56.120Z,9.14
2022-12-25T10:22:49.593Z,8.66
2022-12-25T10:25:55.277Z,8.03
2022-12-25T10:28:29.783Z,8.81
2022-12-25T10:31:03.620Z,8.24
2022-12-25T10:33:31.101Z,7.99
2022-12-25T10:35:58.286Z,8.27
2022-12-25T10:38:25.209Z,8.58
2022-12-25T10:41:08.668Z,8.62
2022-12-25T10:43:42.300Z,8.40
2022-12-25T10:46:20.736Z,8.37
2022-12-25T10:48:56.427Z,8.88
2022-12-25T10:54:32.763Z,8.43
2022-12-25T10:57:15.121Z,8.46
2022-12-25T11:00:25.013Z,8.49
2022-12-25T11:03:32.212Z,8.39
2022-12-25T11:06:35.422Z,9.54
2022-12-25T11:16:29.517Z,8.98
2022-12-25T11:29:38.566Z,9.22
2022-12-25T11:36:09.991Z,9.54
2022-12-25T12:00:01.575Z,9.68
2022-12-25T12:02:35.233Z,8.89
2022-12-25T12:05:33.273Z,8.53
2022-12-25T12:08:17.345Z,8.97
2022-12-25T12:14:31.999Z,9.73
2022-12-25T12:17:16.314Z,9.43
2022-12-25T12:19:53.203Z,8.62
2022-12-25T12:25:54.705Z,8.98
2022-12-25T12:29:02.027Z,8.56
2022-12-25T12:32:13.131Z,9.00
2022-12-25T12:35:04.192Z,9.75
2022-12-25T12:46:46.142Z,8.81
2022-12-25T12:49:37.032Z,8.48
2022-12-25T12:52:44.752Z,8.50
2022-12-25T13:02:05.804Z,8.52
2022-12-25T13:14:16.604Z,8.62
2022-12-25T13:16:54.803Z,9.73
2022-12-25T13:19:53.153Z,8.63
2022-12-25T13:22:39.666Z,8.74
2022-12-25T13:25:24.200Z,8.55
2022-12-25T13:28:00.585Z,9.35
2022-12-25T13:30:43.178Z,9.84
2022-12-25T13:33:18.709Z,8.90
2022-12-25T13:36:02.208Z,9.56
2022-12-25T13:38:31.835Z,8.69
2022-12-25T13:41:04.277Z,8.75
2022-12-25T13:43:31.171Z,8.91
2022-12-25T13:45:58.055Z,9.82
2022-12-25T13:48:25.640Z,9.35
2022-12-25T13:50:58.100Z,9.79
2022-12-25T13:53:35.547Z,9.20
2022-12-25T13:56:16.843Z,9.43
2022-12-25T13:58:53.482Z,9.54
2022-12-25T14:01:38.476Z,8.61
2022-12-25T14:04:20.628Z,9.90
2022-12-25T14:10:16.416Z,9.16
2022-12-25T14:12:49.527Z,9.21
2022-12-25T14:15:30.998Z,9.34
2022-12-25T14:18:05.953Z,9.61
2022-12-25T14:20:58.381Z,8.85
2022-12-25T14:23:41.846Z,9.31
2022-12-25T14:26:19.231Z,9.81
2022-12-25T14:28:50.477Z,9.06
2022-12-25T14:31:20.774Z,9.75
2022-12-25T14:33:51.436Z,9.38
2022-12-25T14:36:18.989Z,9.47
2022-12-25T14:38:57.443Z,9.23
2022-12-25T14:41:29.161Z,9.15
2022-12-25T14:43:57.461Z,9.45
2022-12-25T14:46:26.442Z,8.43
2022-12-25T14:49:00.177Z,8.50
2022-12-25T14:51:29.563Z,9.14
2022-12-25T14:53:58.210Z,8.83
2022-12-25T14:56:29.483Z,9.63
2022-12-25T14:58:59.984Z,9.39
2022-12-25T15:01:30.303Z,9.17
2022-12-25T15:04:08.822Z,8.64
2022-12-25T15:06:40.572Z,9.45
2022-12-25T15:09:15.865Z,9.66
2022-12-25T15:11:42.637Z,8.53
2022-12-25T15:14:12.073Z,9.61
2022-12-25T15:16:41.845Z,8.57
2022-12-25T15:19:13.193Z,8.57
2022-12-25T15:21:40.349Z,9.33
2022-12-25T15:24:11.430Z,8.62
2022-12-25T15:26:38.229Z,8.64
2022-12-25T15:29:05.350Z,8.59
2022-12-25T15:31:48.408Z,9.58
2022-12-25T15:34:28.219Z,8.55
2022-12-25T15:36:57.428Z,9.79
2022-12-25T15:39:24.343Z,9.13
2022-12-25T15:41:52.881Z,8.79
2022-12-25T15:44:20.722Z,8.65
2022-12-25T15:46:51.911Z,8.96
2022-12-25T15:49:19.009Z,8.70
2022-12-25T15:51:46.921Z,9.00
2022-12-25T15:54:14.753Z,9.16
2022-12-25T15:56:45.493Z,9.67
2022-12-25T15:59:13.981Z,9.83
2022-12-25T16:01:44.546Z,9.83
2022-12-25T16:04:12.684Z,9.82
2022-12-25T16:06:42.419Z,9.82
2022-12-25T16:09:11.312Z,9.83
2022-12-25T16:11:38.283Z,9.79
2022-12-25T16:14:05.947Z,9.76
2022-12-25T16:16:54.991Z,9.36
2022-12-25T16:19:25.794Z,9.55
2022-12-25T16:22:17.769Z,9.78
2022-12-25T16:24:57.864Z,8.88
2022-12-25T16:27:29.202Z,9.82
2022-12-25T16:30:01.945Z,9.83
2022-12-25T16:32:31.394Z,9.54
2022-12-25T16:35:04.827Z,9.52
2022-12-25T16:37:31.698Z,8.79
2022-12-25T16:40:00.775Z,9.33
2022-12-25T16:42:27.725Z,8.73
2022-12-25T16:44:54.504Z,9.27
2022-12-25T16:47:21.655Z,8.58
2022-12-25T16:49:50.423Z,8.51
2022-12-25T16:52:19.581Z,8.83
2022-12-25T16:54:48.678Z,8.54
2022-12-25T16:57:18.153Z,8.61
2022-12-25T16:59:50.907Z,8.58
2022-12-25T17:02:23.045Z,9.78
2022-12-25T17:04:54.921Z,8.70
2022-12-25T17:07:23.593Z,8.61
2022-12-25T17:09:50.427Z,8.79
2022-12-25T17:12:19.143Z,9.52
2022-12-25T17:14:51.087Z,8.86
2022-12-25T17:17:17.879Z,8.61
2022-12-25T17:19:46.839Z,8.79
2022-12-25T17:22:14.041Z,9.31
2022-12-25T17:24:42.316Z,9.78
2022-12-25T17:27:13.876Z,9.67
2022-12-25T17:29:43.711Z,9.80
2022-12-25T17:32:12.962Z,9.74
2022-12-25T17:34:42.467Z,8.80
2022-12-25T17:37:15.221Z,8.90
2022-12-25T17:39:44.002Z,8.83
2022-12-25T17:42:10.811Z,9.78
2022-12-25T17:44:46.834Z,9.30
2022-12-25T17:47:13.776Z,9.62
2022-12-25T17:49:43.562Z,9.55
2022-12-25T17:52:10.338Z,8.70
2022-12-25T17:54:37.399Z,9.69
2022-12-25T17:57:05.954Z,9.74
2022-12-25T17:59:32.937Z,9.51
2022-12-25T18:02:02.565Z,8.48
2022-12-25T18:04:34.365Z,9.45
2022-12-25T18:07:03.889Z,8.53
2022-12-25T18:09:30.618Z,8.67
2022-12-25T18:11:57.664Z,9.47
2022-12-25T18:14:26.002Z,9.58
2022-12-25T18:16:54.837Z,8.88
2022-12-25T18:19:21.752Z,8.96
2022-12-25T18:21:51.691Z,9.38
2022-12-25T18:24:20.768Z,9.37
2022-12-25T18:26:50.805Z,8.33
2022-12-25T18:29:20.271Z,9.49
2022-12-25T18:31:53.507Z,9.45
2022-12-25T18:34:23.398Z,9.15
2022-12-25T18:36:59.417Z,8.51
2022-12-25T18:39:33.540Z,8.56
2022-12-25T18:42:16.939Z,8.74
2022-12-25T18:44:47.803Z,9.71
2022-12-25T18:47:22.399Z,9.69
2022-12-25T18:49:52.054Z,9.69
2022-12-25T18:52:48.000Z,9.37
2022-12-25T18:55:16.654Z,9.60
2022-12-25T18:57:46.373Z,8.43
2022-12-25T19:00:16.148Z,9.37
2022-12-25T19:02:54.424Z,9.33
2022-12-25T19:05:24.415Z,9.39
2022-12-25T19:08:08.400Z,8.41
2022-12-25T19:10:39.707Z,8.45
2022-12-25T19:13:07.585Z,9.15
2022-12-25T19:15:43.664Z,8.44
2022-12-25T19:18:14.780Z,8.45
2022-12-25T19:20:42.917Z,9.35
2022-12-25T19:23:18.640Z,8.30
2022-12-25T19:25:50.023Z,9.14
2022-12-25T19:28:25.170Z,9.59
2022-12-25T19:30:55.262Z,9.18
2022-12-25T19:33:30.456Z,9.37
2022-12-25T19:36:21.502Z,8.42
2022-12-25T19:39:05.280Z,9.63
2022-12-25T19:41:49.901Z,9.10
2022-12-25T19:44:31.768Z,9.32
2022-12-25T19:47:10.420Z,9.57
2022-12-25T19:50:03.699Z,9.61
2022-12-25T19:52:31.739Z,9.30
2022-12-25T19:55:12.939Z,9.60
2022-12-25T19:57:45.095Z,9.28
2022-12-25T20:00:12.613Z,9.26
2022-12-25T20:02:40.017Z,8.34
2022-12-25T20:05:22.423Z,8.81
2022-12-25T20:07:56.552Z,9.21
2022-12-25T20:10:33.305Z,9.52
2022-12-25T20:13:06.624Z,8.58
2022-12-25T20:15:34.224Z,8.75
2022-12-25T20:18:16.484Z,9.39
2022-12-25T20:21:00.028Z,8.52
2022-12-25T20:23:50.685Z,9.43
2022-12-25T20:26:19.550Z,8.54
2022-12-25T20:28:46.608Z,8.46
2022-12-25T20:31:18.554Z,9.38
2022-12-25T20:33:48.654Z,9.45
2022-12-25T20:36:16.897Z,9.46
2022-12-25T20:38:43.796Z,9.08
2022-12-25T20:41:29.648Z,9.44
2022-12-25T20:44:02.613Z,9.43
2022-12-25T20:46:29.932Z,9.42
2022-12-25T20:48:57.060Z,9.41
2022-12-25T20:51:26.128Z,9.40
2022-12-25T20:53:53.903Z,9.39
2022-12-25T20:56:23.875Z,9.33
2022-12-25T20:58:53.662Z,9.38
2022-12-25T21:01:22.314Z,9.39
2022-12-25T21:03:52.014Z,8.81
2022-12-25T21:06:19.836Z,9.05
2022-12-25T21:08:50.379Z,8.92
2022-12-25T21:11:19.367Z,8.22
2022-12-25T21:13:50.443Z,8.26
2022-12-25T21:16:20.178Z,8.95
2022-12-25T21:18:48.810Z,8.17
2022-12-25T21:21:17.904Z,8.57
2022-12-25T21:23:46.996Z,9.24
2022-12-25T21:26:17.441Z,8.36
2022-12-25T21:28:57.668Z,9.43
2022-12-25T21:31:32.121Z,8.87
2022-12-25T21:34:05.234Z,9.10
2022-12-25T21:36:38.751Z,8.16
2022-12-25T21:39:09.299Z,8.16
2022-12-25T21:42:00.580Z,8.66
2022-12-25T21:44:27.558Z,8.78
2022-12-25T21:46:54.581Z,9.37
2022-12-25T21:49:21.628Z,9.08
2022-12-25T21:51:48.454Z,8.44
2022-12-25T21:54:16.087Z,8.37
2022-12-25T21:56:45.794Z,8.20
2022-12-25T21:59:16.749Z,8.09
2022-12-25T22:01:44.268Z,9.29
2022-12-25T22:04:12.681Z,8.98
2022-12-25T22:06:41.825Z,8.73
2022-12-25T22:09:09.778Z,8.62
2022-12-25T22:11:36.785Z,8.90
2022-12-25T22:14:06.094Z,9.08
2022-12-25T22:16:34.364Z,8.55
2022-12-25T22:19:04.284Z,9.30
2022-12-25T22:21:33.895Z,8.48
2022-12-25T22:24:00.942Z,8.20
2022-12-25T22:26:37.221Z,9.02
2022-12-25T22:29:04.239Z,8.19
2022-12-25T22:31:32.947Z,8.06
2022-12-25T22:34:04.308Z,8.04
2022-12-25T22:36:31.526Z,9.17
2022-12-25T22:39:01.579Z,8.29
2022-12-25T22:41:33.424Z,8.71
2022-12-25T22:44:16.907Z,8.68
2022-12-25T22:46:50.718Z,8.38
2022-12-25T22:49:19.671Z,9.11
2022-12-25T22:52:00.874Z,8.00
2022-12-25T22:54:30.374Z,8.79
2022-12-25T22:56:58.281Z,8.71
2022-12-25T22:59:31.764Z,7.98
2022-12-25T23:02:02.718Z,8.60
2022-12-25T23:04:34.067Z,8.55
2022-12-25T23:07:05.125Z,8.49
2022-12-25T23:09:34.812Z,8.04
2022-12-25T23:12:01.865Z,8.85
2022-12-25T23:14:28.680Z,8.10
2022-12-25T23:16:56.731Z,8.95
2022-12-25T23:19:24.233Z,8.48
2022-12-25T23:21:53.025Z,7.95
2022-12-25T23:24:21.678Z,8.00
2022-12-25T23:26:52.117Z,8.10
2022-12-25T23:29:18.983Z,9.14
2022-12-25T23:31:45.729Z,9.15
2022-12-25T23:34:13.462Z,8.60
2022-12-25T23:36:40.209Z,8.10
2022-12-25T23:39:12.462Z,8.86
2022-12-25T23:41:42.179Z,9.15
2022-12-25T23:44:09.666Z,8.00
2022-12-25T23:46:42.118Z,7.89
2022-12-25T23:49:24.658Z,9.17
2022-12-25T23:51:52.036Z,7.82
2022-12-25T23:54:27.549Z,8.90
2022-12-25T23:56:58.490Z,8.56
2022-12-25T23:59:31.809Z,8.14
